createdAt,value
2023-03-16T00:00:09.757Z,0.52
2023-03-16T00:02:36.852Z,0.54
2023-03-16T00:05:04.265Z,0.53
2023-03-16T00:07:31.413Z,0.42
2023-03-16T00:09:58.546Z,0.46
2023-03-16T00:12:26.473Z,0.39
2023-03-16T00:14:54.467Z,0.36
2023-03-16T00:17:21.905Z,0.35
2023-03-16T00:19:55.506Z,0.29
2023-03-16T00:22:28.709Z,0.32
2023-03-16T00:24:56.430Z,0.31
2023-03-16T00:27:25.993Z,0.28
2023-03-16T00:29:57.195Z,0.30
2023-03-16T00:32:27.414Z,0.28
2023-03-16T00:34:54.416Z,0.23
2023-03-16T00:37:23.895Z,0.25
2023-03-16T00:39:52.578Z,0.24
2023-03-16T00:42:20.522Z,0.24
2023-03-16T00:44:47.896Z,0.19
2023-03-16T00:47:15.416Z,0.24
2023-03-16T00:49:44.256Z,0.18
2023-03-16T00:52:16.340Z,0.13
2023-03-16T00:54:45.272Z,0.13
2023-03-16T00:57:14.991Z,0.17
2023-03-16T00:59:42.601Z,0.22
2023-03-16T01:02:11.794Z,0.22
2023-03-16T01:04:40.300Z,0.26
2023-03-16T01:07:12.778Z,0.27
2023-03-16T01:09:41.213Z,0.29
2023-03-16T01:12:15.171Z,0.31
2023-03-16T01:14:46.036Z,0.32
2023-03-16T01:17:14.174Z,0.35
2023-03-16T01:19:42.101Z,0.31
2023-03-16T01:22:11.897Z,0.32
2023-03-16T01:24:40.132Z,0.30
2023-03-16T01:27:07.881Z,0.29
2023-03-16T01:29:35.424Z,0.33
2023-03-16T01:32:02.781Z,0.37
2023-03-16T01:34:30.297Z,0.37
2023-03-16T01:36:57.696Z,0.38
2023-03-16T01:39:28.138Z,0.37
2023-03-16T01:41:55.174Z,0.31
2023-03-16T01:44:30.709Z,0.37
2023-03-16T01:47:03.617Z,0.35
2023-03-16T01:49:34.263Z,0.33
2023-03-16T01:52:10.326Z,0.30
2023-03-16T01:54:46.316Z,0.27
2023-03-16T01:57:20.239Z,0.27
2023-03-16T01:59:53.917Z,0.28
2023-03-16T02:02:27.377Z,0.25
2023-03-16T02:05:27.153Z,0.25
2023-03-16T02:07:58.906Z,0.27
2023-03-16T02:10:29.385Z,0.27
2023-03-16T02:12:58.213Z,0.25
2023-03-16T02:15:25.909Z,0.25
2023-03-16T02:17:53.193Z,0.19
2023-03-16T02:20:44.301Z,0.22
2023-03-16T02:23:18.715Z,0.21
2023-03-16T02:25:57.818Z,0.21
2023-03-16T02:28:42.841Z,0.22
2023-03-16T02:31:10.529Z,0.22
2023-03-16T02:33:37.798Z,0.22
2023-03-16T02:36:07.352Z,0.20
2023-03-16T02:38:34.511Z,0.26
2023-03-16T02:41:19.296Z,0.22
2023-03-16T02:44:14.818Z,0.16
2023-03-16T02:46:44.142Z,0.17
2023-03-16T02:49:27.861Z,0.20
2023-03-16T02:51:55.106Z,0.17
2023-03-16T02:54:22.238Z,0.18
2023-03-16T02:56:49.388Z,0.17
2023-03-16T02:59:16.773Z,0.16
2023-03-16T03:01:43.886Z,0.16
2023-03-16T03:04:11.127Z,0.16
2023-03-16T03:06:38.355Z,0.17
2023-03-16T03:09:06.388Z,0.13
2023-03-16T03:11:33.702Z,0.14
2023-03-16T03:14:00.743Z,0.11
2023-03-16T03:16:28.448Z,0.13
2023-03-16T03:18:56.978Z,0.11
2023-03-16T03:21:24.389Z,0.15
2023-03-16T03:23:51.947Z,0.24
2023-03-16T03:26:20.050Z,0.23
2023-03-16T03:28:48.321Z,0.26
2023-03-16T03:31:22.158Z,0.24
2023-03-16T03:33:51.137Z,0.24
2023-03-16T03:36:18.297Z,0.25
2023-03-16T03:38:46.456Z,0.27
2023-03-16T03:41:13.550Z,0.25
2023-03-16T03:43:41.231Z,0.28
2023-03-16T03:46:13.806Z,0.25
2023-03-16T03:48:41.298Z,0.22
2023-03-16T03:51:08.344Z,0.21
2023-03-16T03:53:47.129Z,0.19
2023-03-16T03:56:14.333Z,0.16
2023-03-16T03:58:41.569Z,0.12
2023-03-16T04:01:09.698Z,0.16
2023-03-16T04:03:36.926Z,0.15
2023-03-16T04:06:08.207Z,0.15
2023-03-16T04:08:36.139Z,0.09
2023-03-16T04:11:04.585Z,-0.11
2023-03-16T04:13:31.715Z,0.11
2023-03-16T04:16:05.245Z,0.04
2023-03-16T04:18:39.579Z,0.07
2023-03-16T04:21:14.175Z,0.05
2023-03-16T04:23:42.728Z,0.05
2023-03-16T04:26:10.878Z,0.03
2023-03-16T04:28:38.146Z,0.07
2023-03-16T04:31:07.600Z,0.08
2023-03-16T04:33:40.298Z,0.10
2023-03-16T04:36:07.728Z,0.08
2023-03-16T04:38:37.047Z,0.08
2023-03-16T04:41:05.901Z,0.06
2023-03-16T04:43:40.655Z,0.06
2023-03-16T04:46:14.891Z,0.04
2023-03-16T04:48:42.078Z,0.04
2023-03-16T04:51:09.511Z,0.03
2023-03-16T04:53:40.482Z,0.04
2023-03-16T04:56:19.903Z,0.03
2023-03-16T04:58:53.837Z,0.01
2023-03-16T05:01:23.967Z,0.02
2023-03-16T05:03:54.787Z,0.01
2023-03-16T05:06:22.541Z,0.01
2023-03-16T05:08:49.904Z,-0.01
2023-03-16T05:11:17.416Z,-0.03
2023-03-16T05:13:54.871Z,-0.04
2023-03-16T05:16:22.519Z,-0.01
2023-03-16T05:18:50.577Z,0.01
2023-03-16T05:21:17.714Z,-0.01
2023-03-16T05:23:57.858Z,-0.01
2023-03-16T05:26:27.899Z,0.01
2023-03-16T05:28:56.098Z,0.02
2023-03-16T05:31:29.067Z,0.05
2023-03-16T05:33:59.897Z,0.05
2023-03-16T05:36:27.196Z,-0.01
2023-03-16T05:38:59.592Z,0.03
2023-03-16T05:41:32.240Z,0.15
2023-03-16T05:44:04.730Z,0.38
2023-03-16T05:46:52.134Z,0.56
2023-03-16T05:49:19.385Z,0.56
2023-03-16T05:51:46.672Z,0.55
2023-03-16T05:54:14.158Z,0.50
2023-03-16T05:56:45.113Z,0.52
2023-03-16T05:59:12.156Z,0.53
2023-03-16T06:01:40.415Z,0.59
2023-03-16T06:04:08.183Z,0.60
2023-03-16T06:06:39.904Z,0.67
2023-03-16T06:09:14.270Z,0.70
2023-03-16T06:11:42.267Z,0.75
2023-03-16T06:14:09.563Z,0.75
2023-03-16T06:16:37.213Z,0.76
2023-03-16T06:19:04.381Z,0.76
2023-03-16T06:21:33.351Z,0.80
2023-03-16T06:24:09.454Z,0.77
2023-03-16T06:26:37.806Z,0.76
2023-03-16T06:29:08.005Z,0.81
2023-03-16T06:31:37.433Z,0.75
2023-03-16T06:34:05.313Z,0.87
2023-03-16T06:36:32.487Z,0.86
2023-03-16T06:39:01.719Z,0.89
2023-03-16T06:41:34.961Z,0.94
2023-03-16T06:44:03.068Z,0.95
2023-03-16T06:46:30.492Z,1.00
2023-03-16T06:49:01.151Z,0.86
2023-03-16T06:51:28.546Z,1.07
2023-03-16T06:53:55.712Z,1.06
2023-03-16T06:56:23.378Z,1.11
2023-03-16T06:58:50.516Z,1.18
2023-03-16T07:01:17.970Z,1.29
2023-03-16T07:03:45.180Z,1.47
2023-03-16T07:06:20.705Z,1.60
2023-03-16T07:08:47.861Z,1.65
2023-03-16T07:11:15.383Z,1.71
2023-03-16T07:13:42.590Z,1.76
2023-03-16T07:16:10.547Z,1.81
2023-03-16T07:18:40.087Z,1.88
2023-03-16T07:21:10.984Z,1.97
2023-03-16T07:23:38.961Z,1.95
2023-03-16T07:26:08.458Z,2.01
2023-03-16T07:28:39.803Z,2.04
2023-03-16T07:31:07.500Z,2.08
2023-03-16T07:33:39.303Z,2.11
2023-03-16T07:36:10.973Z,2.25
2023-03-16T07:38:44.168Z,2.29
2023-03-16T07:41:12.726Z,2.30
2023-03-16T07:43:41.076Z,2.35
2023-03-16T07:46:13.962Z,2.38
2023-03-16T07:48:45.181Z,2.33
2023-03-16T07:51:14.074Z,2.31
2023-03-16T07:53:43.424Z,2.27
2023-03-16T07:56:47.428Z,2.24
2023-03-16T07:59:24.063Z,2.34
2023-03-16T08:01:51.312Z,2.39
2023-03-16T08:04:18.501Z,2.48
2023-03-16T08:06:46.216Z,2.49
2023-03-16T08:09:14.619Z,2.43
2023-03-16T08:11:42.112Z,2.46
2023-03-16T08:14:09.345Z,2.65
2023-03-16T08:16:58.423Z,2.87
2023-03-16T08:19:27.700Z,2.92
2023-03-16T08:22:01.775Z,3.04
2023-03-16T08:24:36.143Z,3.18
2023-03-16T08:27:04.910Z,3.34
2023-03-16T08:29:34.745Z,3.39
2023-03-16T08:32:03.906Z,3.59
2023-03-16T08:34:40.169Z,3.68
2023-03-16T08:37:10.015Z,3.89
2023-03-16T08:39:37.268Z,3.94
2023-03-16T08:42:09.208Z,3.96
2023-03-16T08:44:44.311Z,4.11
2023-03-16T08:47:12.331Z,4.30
2023-03-16T08:49:42.730Z,4.41
2023-03-16T08:52:13.554Z,4.47
2023-03-16T08:54:49.739Z,4.58
2023-03-16T08:57:23.716Z,4.68
2023-03-16T08:59:51.598Z,4.75
2023-03-16T09:02:18.903Z,4.80
2023-03-16T09:04:46.285Z,4.97
2023-03-16T09:07:13.810Z,5.18
2023-03-16T09:09:41.045Z,5.23
2023-03-16T09:12:08.687Z,5.22
2023-03-16T09:14:37.861Z,5.18
2023-03-16T09:17:05.434Z,5.17
2023-03-16T09:19:50.095Z,5.36
2023-03-16T09:22:18.596Z,5.28
2023-03-16T09:24:45.903Z,5.13
2023-03-16T09:27:13.360Z,4.96
2023-03-16T09:29:41.341Z,4.87
2023-03-16T09:32:09.817Z,4.71
2023-03-16T09:34:37.020Z,4.52
2023-03-16T09:37:04.624Z,4.23
2023-03-16T09:39:32.271Z,4.29
2023-03-16T09:42:13.312Z,4.09
2023-03-16T09:44:52.613Z,4.07
2023-03-16T09:47:27.563Z,4.13
2023-03-16T09:49:58.784Z,4.15
2023-03-16T09:52:35.504Z,4.14
2023-03-16T09:55:36.876Z,4.18
2023-03-16T09:58:10.985Z,4.26
2023-03-16T10:00:47.911Z,4.02
2023-03-16T10:03:34.637Z,4.34
2023-03-16T10:06:04.311Z,4.31
2023-03-16T10:08:39.441Z,4.32
2023-03-16T10:11:33.395Z,4.33
2023-03-16T10:14:33.237Z,4.35
2023-03-16T10:17:35.745Z,4.29
2023-03-16T10:20:09.230Z,4.27
2023-03-16T10:22:42.619Z,4.18
2023-03-16T10:25:27.990Z,4.11
2023-03-16T10:27:56.852Z,4.05
2023-03-16T10:30:33.649Z,3.99
2023-03-16T10:33:11.935Z,3.94
2023-03-16T10:36:04.013Z,3.90
2023-03-16T10:38:40.283Z,3.82
2023-03-16T10:41:29.526Z,3.84
2023-03-16T10:44:08.703Z,3.88
2023-03-16T10:46:40.906Z,3.88
2023-03-16T10:49:42.359Z,3.91
2023-03-16T10:52:19.832Z,3.98
2023-03-16T10:55:11.659Z,4.04
2023-03-16T10:57:43.060Z,4.05
2023-03-16T11:00:41.836Z,4.09
2023-03-16T11:03:26.222Z,4.13
2023-03-16T11:06:05.228Z,4.20
2023-03-16T11:08:35.790Z,4.22
2023-03-16T11:11:12.133Z,4.19
2023-03-16T11:13:45.473Z,4.26
2023-03-16T11:16:32.406Z,4.27
2023-03-16T11:19:22.525Z,4.33
2023-03-16T11:21:57.345Z,4.41
2023-03-16T11:25:02.383Z,4.46
2023-03-16T11:28:01.549Z,4.41
2023-03-16T11:30:35.523Z,4.55
2023-03-16T11:33:04.329Z,4.66
2023-03-16T11:35:59.332Z,4.74
2023-03-16T11:39:04.902Z,4.78
2023-03-16T11:42:04.202Z,5.09
2023-03-16T11:45:12.751Z,5.49
2023-03-16T11:48:09.849Z,5.94
2023-03-16T11:51:05.586Z,6.25
2023-03-16T11:53:38.637Z,6.13
2023-03-16T11:56:15.712Z,5.96
2023-03-16T11:59:22.045Z,5.74
2023-03-16T12:02:26.447Z,5.55
2023-03-16T12:05:11.873Z,5.41
2023-03-16T12:08:04.559Z,5.24
2023-03-16T12:10:57.876Z,5.17
2023-03-16T12:13:57.306Z,5.03
2023-03-16T12:16:48.677Z,4.89
2023-03-16T12:19:25.066Z,4.87
2023-03-16T12:22:17.451Z,4.93
2023-03-16T12:24:48.256Z,4.99
2023-03-16T12:27:22.815Z,5.05
2023-03-16T12:30:03.938Z,5.09
2023-03-16T12:32:39.184Z,5.22
2023-03-16T12:35:18.255Z,5.24
2023-03-16T12:37:56.908Z,5.21
2023-03-16T12:40:34.058Z,5.17
2023-03-16T12:43:19.166Z,5.13
2023-03-16T12:45:58.750Z,5.05
2023-03-16T12:48:32.716Z,4.99
2023-03-16T12:51:05.353Z,4.95
2023-03-16T12:53:52.054Z,4.89
2023-03-16T12:56:30.379Z,4.87
2023-03-16T12:59:00.449Z,4.95
2023-03-16T13:01:31.415Z,5.08
2023-03-16T13:04:24.129Z,5.27
2023-03-16T13:07:02.054Z,5.46
2023-03-16T13:09:32.947Z,5.66
2023-03-16T13:12:05.215Z,5.67
2023-03-16T13:14:44.462Z,5.60
2023-03-16T13:17:17.349Z,5.47
2023-03-16T13:19:47.987Z,5.41
2023-03-16T13:22:31.396Z,5.41
2023-03-16T13:25:25.742Z,5.51
2023-03-16T13:27:56.178Z,5.69
2023-03-16T13:30:29.947Z,5.73
2023-03-16T13:33:04.546Z,5.67
2023-03-16T13:35:32.284Z,5.60
2023-03-16T13:38:06.823Z,5.57
2023-03-16T13:40:35.106Z,5.51
2023-03-16T13:43:02.321Z,5.54
2023-03-16T13:45:34.008Z,5.57
2023-03-16T13:48:05.681Z,5.65
2023-03-16T13:50:34.236Z,5.77
2023-03-16T13:53:04.986Z,5.89
2023-03-16T13:55:35.021Z,5.85
2023-03-16T13:58:04.247Z,5.73
2023-03-16T14:00:35.128Z,5.69
2023-03-16T14:03:14.665Z,5.61
2023-03-16T14:05:41.743Z,5.47
2023-03-16T14:08:22.114Z,5.51
2023-03-16T14:10:51.059Z,5.46
2023-03-16T14:13:25.865Z,5.46
2023-03-16T14:16:00.323Z,5.45
2023-03-16T14:18:37.771Z,5.51
2023-03-16T14:21:09.939Z,5.61
2023-03-16T14:23:46.731Z,5.68
2023-03-16T14:26:27.944Z,5.78
2023-03-16T14:28:57.527Z,5.77
2023-03-16T14:31:38.448Z,5.69
2023-03-16T14:34:20.262Z,5.67
2023-03-16T14:36:47.624Z,5.63
2023-03-16T14:39:19.771Z,5.64
2023-03-16T14:41:52.520Z,5.63
2023-03-16T14:44:24.368Z,5.62
2023-03-16T14:46:54.472Z,5.62
2023-03-16T14:49:36.629Z,5.62
2023-03-16T14:52:15.918Z,5.70
2023-03-16T14:54:43.100Z,5.72
2023-03-16T14:57:17.106Z,5.70
2023-03-16T14:59:44.304Z,5.72
2023-03-16T15:02:25.533Z,5.82
2023-03-16T15:04:53.036Z,5.86
2023-03-16T15:07:27.301Z,5.81
2023-03-16T15:09:56.742Z,5.80
2023-03-16T15:12:26.304Z,5.76
2023-03-16T15:15:12.507Z,5.74
2023-03-16T15:17:39.663Z,5.65
2023-03-16T15:20:07.749Z,5.57
2023-03-16T15:22:38.590Z,5.57
2023-03-16T15:25:24.904Z,5.60
2023-03-16T15:27:53.193Z,5.61
2023-03-16T15:30:26.569Z,5.57
2023-03-16T15:32:53.888Z,5.71
2023-03-16T15:35:21.504Z,5.68
2023-03-16T15:37:49.343Z,5.66
2023-03-16T15:40:28.737Z,5.60
2023-03-16T15:42:56.307Z,5.57
2023-03-16T15:45:23.923Z,5.46
2023-03-16T15:47:52.561Z,5.45
2023-03-16T15:50:21.963Z,5.45
2023-03-16T15:53:00.169Z,5.45
2023-03-16T15:55:42.711Z,5.42
2023-03-16T15:58:20.502Z,5.38
2023-03-16T16:00:48.970Z,5.31
2023-03-16T16:03:16.216Z,5.30
2023-03-16T16:05:43.415Z,5.31
2023-03-16T16:08:10.657Z,5.26
2023-03-16T16:10:39.758Z,5.27
2023-03-16T16:13:11.941Z,5.26
2023-03-16T16:15:39.818Z,5.24
2023-03-16T16:18:35.246Z,5.22
2023-03-16T16:21:05.446Z,5.15
2023-03-16T16:23:33.156Z,5.15
2023-03-16T16:26:04.017Z,5.10
2023-03-16T16:28:33.142Z,5.07
2023-03-16T16:31:03.940Z,5.04
2023-03-16T16:33:33.955Z,5.00
2023-03-16T16:36:04.725Z,4.97
2023-03-16T16:38:32.625Z,4.94
2023-03-16T16:41:02.220Z,4.89
2023-03-16T16:43:37.761Z,4.82
2023-03-16T16:46:24.166Z,4.69
2023-03-16T16:48:58.054Z,4.59
2023-03-16T16:51:28.012Z,4.44
2023-03-16T16:53:57.871Z,4.29
2023-03-16T16:56:33.900Z,4.19
2023-03-16T16:59:12.891Z,4.02
2023-03-16T17:01:40.309Z,3.88
2023-03-16T17:04:17.517Z,3.76
2023-03-16T17:06:46.081Z,3.68
2023-03-16T17:09:14.583Z,3.57
2023-03-16T17:11:44.155Z,3.45
2023-03-16T17:14:17.219Z,3.32
2023-03-16T17:16:47.348Z,3.23
2023-03-16T17:19:20.343Z,3.14
2023-03-16T17:21:49.020Z,3.08
2023-03-16T17:24:17.085Z,3.06
2023-03-16T17:27:04.828Z,3.02
2023-03-16T17:29:33.988Z,2.99
2023-03-16T17:32:17.147Z,2.98
2023-03-16T17:34:44.518Z,2.89
2023-03-16T17:37:16.683Z,2.88
2023-03-16T17:39:44.015Z,2.79
2023-03-16T17:42:20.584Z,2.79
2023-03-16T17:44:51.025Z,2.72
2023-03-16T17:47:23.764Z,2.65
2023-03-16T17:49:52.127Z,2.55
2023-03-16T17:52:23.768Z,2.53
2023-03-16T17:54:53.575Z,2.41
2023-03-16T17:57:29.776Z,2.39
2023-03-16T17:59:57.902Z,2.21
2023-03-16T18:02:39.885Z,2.27
2023-03-16T18:05:18.431Z,2.22
2023-03-16T18:07:45.658Z,2.15
2023-03-16T18:10:18.166Z,2.09
2023-03-16T18:12:48.388Z,2.00
2023-03-16T18:15:16.900Z,2.02
2023-03-16T18:17:44.931Z,2.00
2023-03-16T18:20:34.511Z,1.99
2023-03-16T18:23:10.643Z,1.96
2023-03-16T18:25:42.382Z,1.93
2023-03-16T18:28:11.420Z,1.91
2023-03-16T18:30:39.988Z,1.92
2023-03-16T18:33:17.395Z,1.86
2023-03-16T18:35:44.823Z,1.84
2023-03-16T18:38:32.503Z,1.80
2023-03-16T18:41:02.309Z,1.69
2023-03-16T18:43:29.990Z,1.67
2023-03-16T18:45:57.382Z,1.60
2023-03-16T18:48:33.590Z,1.59
2023-03-16T18:51:01.332Z,1.56
2023-03-16T18:53:29.188Z,1.47
2023-03-16T18:55:57.617Z,1.50
2023-03-16T18:58:25.579Z,1.48
2023-03-16T19:01:00.774Z,1.50
2023-03-16T19:03:43.702Z,1.48
2023-03-16T19:06:41.771Z,1.35
2023-03-16T19:09:23.000Z,1.33
2023-03-16T19:11:50.898Z,1.35
2023-03-16T19:14:24.685Z,1.30
2023-03-16T19:16:52.471Z,1.25
2023-03-16T19:19:22.116Z,1.25
2023-03-16T19:21:52.942Z,1.24
2023-03-16T19:24:50.954Z,1.16
2023-03-16T19:27:31.670Z,1.08
2023-03-16T19:29:59.098Z,1.01
2023-03-16T19:32:26.638Z,0.95
2023-03-16T19:34:54.002Z,0.92
2023-03-16T19:37:23.975Z,0.94
2023-03-16T19:39:51.466Z,0.97
2023-03-16T19:42:28.402Z,0.97
2023-03-16T19:44:55.584Z,0.93
2023-03-16T19:47:30.996Z,0.96
2023-03-16T19:49:59.349Z,0.89
2023-03-16T19:52:28.439Z,0.81
2023-03-16T19:54:55.657Z,0.70
2023-03-16T19:57:23.251Z,0.67
2023-03-16T19:59:57.320Z,0.69
2023-03-16T20:02:36.582Z,0.69
2023-03-16T20:05:05.226Z,0.67
2023-03-16T20:07:38.236Z,0.69
2023-03-16T20:10:06.780Z,0.68
2023-03-16T20:12:37.227Z,0.66
2023-03-16T20:15:04.804Z,0.64
2023-03-16T20:17:33.196Z,0.66
2023-03-16T20:20:00.340Z,0.65
2023-03-16T20:22:28.865Z,0.64
2023-03-16T20:24:58.263Z,0.65
2023-03-16T20:27:27.958Z,0.64
2023-03-16T20:29:56.060Z,0.56
2023-03-16T20:32:26.217Z,0.54
2023-03-16T20:34:54.268Z,0.51
2023-03-16T20:37:26.475Z,0.53
2023-03-16T20:39:56.421Z,0.52
2023-03-16T20:42:31.263Z,0.49
2023-03-16T20:44:59.493Z,0.41
2023-03-16T20:47:27.406Z,0.38
2023-03-16T20:49:57.826Z,0.39
2023-03-16T20:52:30.852Z,0.31
2023-03-16T20:54:58.491Z,0.42
2023-03-16T20:57:29.306Z,0.39
2023-03-16T20:59:56.703Z,0.40
2023-03-16T21:02:41.786Z,0.41
2023-03-16T21:05:12.859Z,0.44
2023-03-16T21:07:40.102Z,0.40
2023-03-16T21:10:07.786Z,0.47
2023-03-16T21:12:39.586Z,0.52
2023-03-16T21:15:25.757Z,0.50
2023-03-16T21:18:00.185Z,0.44
2023-03-16T21:20:30.987Z,0.44
2023-03-16T21:22:58.910Z,0.47
2023-03-16T21:25:32.952Z,0.43
2023-03-16T21:28:03.345Z,0.41
2023-03-16T21:30:40.201Z,0.39
2023-03-16T21:33:19.157Z,0.35
2023-03-16T21:35:46.680Z,0.43
2023-03-16T21:38:19.548Z,0.46
2023-03-16T21:40:48.077Z,0.43
2023-03-16T21:43:15.814Z,0.44
2023-03-16T21:45:43.916Z,0.45
2023-03-16T21:48:28.269Z,0.44
2023-03-16T21:50:56.043Z,0.45
2023-03-16T21:53:28.869Z,0.43
2023-03-16T21:55:57.423Z,0.39
2023-03-16T21:58:25.095Z,0.40
2023-03-16T22:00:54.838Z,0.40
2023-03-16T22:03:24.971Z,0.36
2023-03-16T22:05:53.054Z,0.33
2023-03-16T22:08:29.413Z,0.39
2023-03-16T22:10:57.372Z,0.40
2023-03-16T22:13:24.669Z,0.42
2023-03-16T22:15:53.413Z,0.46
2023-03-16T22:18:40.753Z,0.28
2023-03-16T22:21:42.130Z,0.46
2023-03-16T22:24:22.349Z,0.50
2023-03-16T22:26:50.968Z,0.48
2023-03-16T22:29:28.549Z,0.51
2023-03-16T22:31:59.645Z,0.52
2023-03-16T22:34:39.597Z,0.51
2023-03-16T22:37:08.185Z,0.49
2023-03-16T22:39:38.605Z,0.52
2023-03-16T22:42:38.936Z,0.53
2023-03-16T22:45:23.166Z,0.49
2023-03-16T22:47:50.935Z,0.50
2023-03-16T22:50:19.889Z,0.49
2023-03-16T22:52:50.223Z,0.53
2023-03-16T22:55:23.791Z,0.51
2023-03-16T22:57:55.738Z,0.56
2023-03-16T23:00:22.986Z,0.60
2023-03-16T23:02:50.408Z,0.62
2023-03-16T23:05:21.979Z,0.65
2023-03-16T23:07:48.933Z,0.63
2023-03-16T23:10:21.409Z,0.65
2023-03-16T23:12:49.525Z,0.62
2023-03-16T23:15:28.799Z,0.61
2023-03-16T23:17:56.619Z,0.54
2023-03-16T23:20:25.286Z,0.58
2023-03-16T23:22:53.343Z,0.57
2023-03-16T23:25:22.137Z,0.53
2023-03-16T23:27:51.735Z,0.47
2023-03-16T23:30:25.924Z,0.42
2023-03-16T23:32:54.770Z,0.40
2023-03-16T23:35:27.725Z,0.42
2023-03-16T23:37:55.924Z,0.37
2023-03-16T23:40:26.230Z,0.34
2023-03-16T23:42:56.108Z,0.38
2023-03-16T23:45:28.427Z,0.36
2023-03-16T23:47:57.725Z,0.37
2023-03-16T23:50:29.159Z,0.40
2023-03-16T23:52:56.433Z,0.43
2023-03-16T23:55:24.292Z,0.43
2023-03-16T23:57:51.280Z,0.39
